sensor_id;sensor_type;location;lat;lon;timestamp;P1;durP1;ratioP1;P2;durP2;ratioP2
45232;SDS011;30969;51.052;17.056;2023-05-10T04:55:19;14.13;;;7.53;;
45232;SDS011;30969;51.052;17.056;2023-05-10T05:00:23;15.27;;;7.15;;
45232;SDS011;30969;51.052;17.056;2023-05-10T05:05:26;9.75;;;7.20;;
45232;SDS011;30969;51.052;17.056;2023-05-10T05:10:32;11.23;;;7.28;;
45232;SDS011;30969;51.052;17.056;2023-05-10T05:15:35;11.73;;;6.55;;
45232;SDS011;30969;51.052;17.056;2023-05-10T05:20:39;14.38;;;6.50;;
45232;SDS011;30969;51.052;17.056;2023-05-10T05:25:44;12.13;;;6.00;;
45232;SDS011;30969;51.052;17.056;2023-05-10T05:30:47;12.88;;;6.55;;
45232;SDS011;30969;51.052;17.056;2023-05-10T05:35:51;15.10;;;6.32;;
45232;SDS011;30969;51.052;17.056;2023-05-10T05:40:56;12.10;;;6.82;;
45232;SDS011;30969;51.052;17.056;2023-05-10T05:46:00;15.50;;;6.55;;
45232;SDS011;30969;51.052;17.056;2023-05-10T05:51:04;9.43;;;6.28;;
45232;SDS011;30969;51.052;17.056;2023-05-10T05:56:09;13.65;;;6.70;;
45232;SDS011;30969;51.052;17.056;2023-05-10T06:01:13;10.40;;;5.93;;
45232;SDS011;30969;51.052;17.056;2023-05-10T06:06:16;13.00;;;6.45;;
45232;SDS011;30969;51.052;17.056;2023-05-10T06:11:21;11.18;;;6.10;;
45232;SDS011;30969;51.052;17.056;2023-05-10T06:16:25;12.20;;;6.50;;
45232;SDS011;30969;51.052;17.056;2023-05-10T06:21:29;10.30;;;5.43;;
45232;SDS011;30969;51.052;17.056;2023-05-10T06:26:34;12.70;;;6.63;;
45232;SDS011;30969;51.052;17.056;2023-05-10T06:31:37;11.25;;;5.20;;
45232;SDS011;30969;51.052;17.056;2023-05-10T06:36:41;11.68;;;5.57;;
45232;SDS011;30969;51.052;17.056;2023-05-10T06:41:46;8.57;;;5.28;;
45232;SDS011;30969;51.052;17.056;2023-05-10T06:46:49;8.32;;;5.53;;
45232;SDS011;30969;51.052;17.056;2023-05-10T06:51:55;9.60;;;5.20;;
45232;SDS011;30969;51.052;17.056;2023-05-10T06:57:00;12.35;;;5.60;;
45232;SDS011;30969;51.052;17.056;2023-05-10T07:02:07;8.48;;;5.38;;
45232;SDS011;30969;51.052;17.056;2023-05-10T07:07:11;9.18;;;4.50;;
45232;SDS011;30969;51.052;17.056;2023-05-10T07:12:17;7.20;;;5.00;;
45232;SDS011;30969;51.052;17.056;2023-05-10T07:17:20;9.63;;;4.85;;
45232;SDS011;30969;51.052;17.056;2023-05-10T07:22:24;9.48;;;4.20;;
45232;SDS011;30969;51.052;17.056;2023-05-10T07:27:29;6.68;;;4.63;;
45232;SDS011;30969;51.052;17.056;2023-05-10T07:32:34;7.68;;;4.50;;
45232;SDS011;30969;51.052;17.056;2023-05-10T07:37:38;7.57;;;4.35;;
45232;SDS011;30969;51.052;17.056;2023-05-10T07:42:43;7.72;;;4.15;;
45232;SDS011;30969;51.052;17.056;2023-05-10T07:47:47;10.13;;;4.10;;
45232;SDS011;30969;51.052;17.056;2023-05-10T07:52:51;6.88;;;3.83;;
45232;SDS011;30969;51.052;17.056;2023-05-10T07:57:56;5.22;;;3.88;;
45232;SDS011;30969;51.052;17.056;2023-05-10T08:03:00;4.50;;;3.95;;
45232;SDS011;30969;51.052;17.056;2023-05-10T08:08:04;6.85;;;3.85;;
45232;SDS011;30969;51.052;17.056;2023-05-10T08:13:10;4.80;;;3.47;;
45232;SDS011;30969;51.052;17.056;2023-05-10T08:18:13;5.20;;;3.20;;
45232;SDS011;30969;51.052;17.056;2023-05-10T08:23:18;8.23;;;3.53;;
45232;SDS011;30969;51.052;17.056;2023-05-10T08:28:24;5.38;;;3.42;;
45232;SDS011;30969;51.052;17.056;2023-05-10T08:33:27;4.47;;;2.85;;
45232;SDS011;30969;51.052;17.056;2023-05-10T08:38:31;3.85;;;3.08;;
45232;SDS011;30969;51.052;17.056;2023-05-10T08:43:37;9.07;;;3.40;;
45232;SDS011;30969;51.052;17.056;2023-05-10T08:48:44;5.45;;;2.95;;
45232;SDS011;30969;51.052;17.056;2023-05-10T08:53:48;4.75;;;3.33;;
45232;SDS011;30969;51.052;17.056;2023-05-10T08:58:55;5.18;;;3.10;;
45232;SDS011;30969;51.052;17.056;2023-05-10T09:03:59;5.10;;;3.30;;
45232;SDS011;30969;51.052;17.056;2023-05-10T09:09:03;9.32;;;3.28;;
45232;SDS011;30969;51.052;17.056;2023-05-10T09:14:09;6.38;;;2.97;;
45232;SDS011;30969;51.052;17.056;2023-05-10T09:19:14;7.80;;;3.55;;
45232;SDS011;30969;51.052;17.056;2023-05-10T09:24:18;7.90;;;3.53;;
45232;SDS011;30969;51.052;17.056;2023-05-10T09:29:23;4.78;;;3.45;;
45232;SDS011;30969;51.052;17.056;2023-05-10T09:34:28;9.55;;;3.50;;
45232;SDS011;30969;51.052;17.056;2023-05-10T09:39:35;4.68;;;3.67;;
45232;SDS011;30969;51.052;17.056;2023-05-10T09:44:41;4.97;;;2.58;;
45232;SDS011;30969;51.052;17.056;2023-05-10T09:49:48;4.85;;;2.92;;
45232;SDS011;30969;51.052;17.056;2023-05-10T09:54:53;4.18;;;2.88;;
45232;SDS011;30969;51.052;17.056;2023-05-10T09:59:58;4.78;;;2.67;;
45232;SDS011;30969;51.052;17.056;2023-05-10T10:05:06;4.82;;;2.85;;
45232;SDS011;30969;51.052;17.056;2023-05-10T10:10:11;6.47;;;2.40;;
45232;SDS011;30969;51.052;17.056;2023-05-10T10:15:17;6.55;;;2.75;;
45232;SDS011;30969;51.052;17.056;2023-05-10T10:20:21;5.32;;;2.78;;
45232;SDS011;30969;51.052;17.056;2023-05-10T10:25:27;4.03;;;3.17;;
45232;SDS011;30969;51.052;17.056;2023-05-10T10:30:36;4.57;;;2.90;;
45232;SDS011;30969;51.052;17.056;2023-05-10T10:35:44;6.13;;;2.70;;
45232;SDS011;30969;51.052;17.056;2023-05-10T10:40:49;5.95;;;2.58;;
45232;SDS011;30969;51.052;17.056;2023-05-10T10:46:09;8.07;;;2.90;;
45232;SDS011;30969;51.052;17.056;2023-05-10T10:51:17;5.30;;;3.00;;
45232;SDS011;30969;51.052;17.056;2023-05-10T10:56:21;5.00;;;3.13;;
45232;SDS011;30969;51.052;17.056;2023-05-10T11:01:27;6.78;;;2.22;;
45232;SDS011;30969;51.052;17.056;2023-05-10T11:06:35;10.05;;;2.22;;
45232;SDS011;30969;51.052;17.056;2023-05-10T11:11:48;3.90;;;2.58;;
45232;SDS011;30969;51.052;17.056;2023-05-10T11:16:55;6.10;;;2.30;;
45232;SDS011;30969;51.052;17.056;2023-05-10T11:22:11;3.30;;;2.42;;
45232;SDS011;30969;51.052;17.056;2023-05-10T11:27:15;4.25;;;1.85;;
45232;SDS011;30969;51.052;17.056;2023-05-10T11:32:20;3.72;;;2.70;;
45232;SDS011;30969;51.052;17.056;2023-05-10T11:37:27;2.53;;;1.92;;
45232;SDS011;30969;51.052;17.056;2023-05-10T11:42:33;3.33;;;1.92;;
45232;SDS011;30969;51.052;17.056;2023-05-10T11:47:38;6.43;;;2.10;;
45232;SDS011;30969;51.052;17.056;2023-05-10T11:52:44;5.15;;;2.28;;
45232;SDS011;30969;51.052;17.056;2023-05-10T11:57:51;4.40;;;2.47;;
45232;SDS011;30969;51.052;17.056;2023-05-10T12:02:56;3.17;;;2.00;;
45232;SDS011;30969;51.052;17.056;2023-05-10T12:08:12;3.42;;;1.85;;
45232;SDS011;30969;51.052;17.056;2023-05-10T12:13:17;4.25;;;2.00;;
45232;SDS011;30969;51.052;17.056;2023-05-10T12:18:24;10.73;;;2.28;;
45232;SDS011;30969;51.052;17.056;2023-05-10T12:23:27;2.63;;;1.75;;
45232;SDS011;30969;51.052;17.056;2023-05-10T12:28:31;5.68;;;1.85;;
45232;SDS011;30969;51.052;17.056;2023-05-10T12:33:54;4.22;;;1.75;;
45232;SDS011;30969;51.052;17.056;2023-05-10T12:39:02;4.53;;;1.90;;
45232;SDS011;30969;51.052;17.056;2023-05-10T12:44:06;3.00;;;1.75;;
45232;SDS011;30969;51.052;17.056;2023-05-10T12:49:11;8.10;;;2.15;;
45232;SDS011;30969;51.052;17.056;2023-05-10T12:54:15;3.92;;;1.98;;
45232;SDS011;30969;51.052;17.056;2023-05-10T12:59:18;6.57;;;1.90;;
45232;SDS011;30969;51.052;17.056;2023-05-10T13:04:23;2.47;;;1.77;;
45232;SDS011;30969;51.052;17.056;2023-05-10T13:09:27;2.78;;;1.90;;
45232;SDS011;30969;51.052;17.056;2023-05-10T13:14:31;3.03;;;1.85;;
45232;SDS011;30969;51.052;17.056;2023-05-10T13:19:36;2.58;;;1.40;;
45232;SDS011;30969;51.052;17.056;2023-05-10T13:24:39;2.72;;;1.83;;
45232;SDS011;30969;51.052;17.056;2023-05-10T13:29:43;3.22;;;1.95;;
45232;SDS011;30969;51.052;17.056;2023-05-10T13:34:50;2.75;;;2.00;;
45232;SDS011;30969;51.052;17.056;2023-05-10T13:39:54;4.53;;;2.00;;
45232;SDS011;30969;51.052;17.056;2023-05-10T13:44:57;2.35;;;1.63;;
45232;SDS011;30969;51.052;17.056;2023-05-10T13:50:02;3.83;;;1.75;;
45232;SDS011;30969;51.052;17.056;2023-05-10T13:55:06;2.35;;;1.50;;
45232;SDS011;30969;51.052;17.056;2023-05-10T14:00:10;2.78;;;1.50;;
45232;SDS011;30969;51.052;17.056;2023-05-10T14:05:16;1.70;;;1.45;;
45232;SDS011;30969;51.052;17.056;2023-05-10T14:10:25;4.45;;;1.30;;
45232;SDS011;30969;51.052;17.056;2023-05-10T14:15:29;4.10;;;1.83;;
45232;SDS011;30969;51.052;17.056;2023-05-10T14:20:34;2.88;;;1.80;;
45232;SDS011;30969;51.052;17.056;2023-05-10T14:25:37;4.70;;;1.85;;
45232;SDS011;30969;51.052;17.056;2023-05-10T14:30:42;2.97;;;1.38;;
45232;SDS011;30969;51.052;17.056;2023-05-10T14:35:47;4.03;;;1.50;;
45232;SDS011;30969;51.052;17.056;2023-05-10T14:40:51;3.55;;;1.50;;
45232;SDS011;30969;51.052;17.056;2023-05-10T14:45:55;2.38;;;1.40;;
45232;SDS011;30969;51.052;17.056;2023-05-10T14:51:00;2.00;;;1.30;;
45232;SDS011;30969;51.052;17.056;2023-05-10T14:56:03;5.40;;;1.27;;
45232;SDS011;30969;51.052;17.056;2023-05-10T15:01:07;3.72;;;1.55;;
45232;SDS011;30969;51.052;17.056;2023-05-10T15:06:13;4.35;;;1.55;;
45232;SDS011;30969;51.052;17.056;2023-05-10T15:11:17;2.95;;;1.13;;
45232;SDS011;30969;51.052;17.056;2023-05-10T15:16:20;2.90;;;1.30;;
45232;SDS011;30969;51.052;17.056;2023-05-10T15:21:26;6.57;;;1.40;;
45232;SDS011;30969;51.052;17.056;2023-05-10T15:26:30;3.50;;;1.70;;
45232;SDS011;30969;51.052;17.056;2023-05-10T15:31:34;2.42;;;1.70;;
45232;SDS011;30969;51.052;17.056;2023-05-10T15:36:39;2.97;;;1.15;;
45232;SDS011;30969;51.052;17.056;2023-05-10T15:41:43;3.47;;;1.58;;
45232;SDS011;30969;51.052;17.056;2023-05-10T15:46:46;3.33;;;1.38;;
45232;SDS011;30969;51.052;17.056;2023-05-10T15:51:51;4.35;;;1.30;;
45232;SDS011;30969;51.052;17.056;2023-05-10T15:56:55;1.50;;;1.30;;
45232;SDS011;30969;51.052;17.056;2023-05-10T16:01:59;7.80;;;2.25;;
45232;SDS011;30969;51.052;17.056;2023-05-10T16:07:06;3.72;;;1.50;;
45232;SDS011;30969;51.052;17.056;2023-05-10T16:12:09;1.58;;;1.33;;
45232;SDS011;30969;51.052;17.056;2023-05-10T16:17:13;2.35;;;1.35;;
45232;SDS011;30969;51.052;17.056;2023-05-10T16:22:18;2.13;;;1.27;;
45232;SDS011;30969;51.052;17.056;2023-05-10T16:27:23;4.47;;;1.38;;
45232;SDS011;30969;51.052;17.056;2023-05-10T16:32:29;3.33;;;1.40;;
45232;SDS011;30969;51.052;17.056;2023-05-10T16:37:34;2.17;;;1.30;;
45232;SDS011;30969;51.052;17.056;2023-05-10T16:42:37;2.35;;;1.30;;
45232;SDS011;30969;51.052;17.056;2023-05-10T16:47:41;2.75;;;1.30;;
45232;SDS011;30969;51.052;17.056;2023-05-10T16:52:46;4.45;;;1.42;;
45232;SDS011;30969;51.052;17.056;2023-05-10T16:57:50;2.67;;;1.40;;
45232;SDS011;30969;51.052;17.056;2023-05-10T17:02:53;3.42;;;2.20;;
45232;SDS011;30969;51.052;17.056;2023-05-10T17:07:58;2.75;;;1.60;;
45232;SDS011;30969;51.052;17.056;2023-05-10T17:13:02;3.78;;;2.00;;
45232;SDS011;30969;51.052;17.056;2023-05-10T17:18:05;2.30;;;1.67;;
45232;SDS011;30969;51.052;17.056;2023-05-10T17:23:12;4.47;;;2.08;;
45232;SDS011;30969;51.052;17.056;2023-05-10T17:28:15;3.33;;;1.92;;
45232;SDS011;30969;51.052;17.056;2023-05-10T17:33:19;4.85;;;2.78;;
45232;SDS011;30969;51.052;17.056;2023-05-10T17:38:24;6.30;;;2.60;;
45232;SDS011;30969;51.052;17.056;2023-05-10T17:43:27;4.05;;;2.40;;
45232;SDS011;30969;51.052;17.056;2023-05-10T17:48:31;5.60;;;2.88;;
45232;SDS011;30969;51.052;17.056;2023-05-10T17:53:39;5.05;;;3.17;;
45232;SDS011;30969;51.052;17.056;2023-05-10T17:58:43;5.82;;;2.65;;
45232;SDS011;30969;51.052;17.056;2023-05-10T18:03:47;7.50;;;3.53;;
45232;SDS011;30969;51.052;17.056;2023-05-10T18:08:53;6.30;;;3.35;;
45232;SDS011;30969;51.052;17.056;2023-05-10T18:13:58;5.80;;;3.42;;
45232;SDS011;30969;51.052;17.056;2023-05-10T18:19:01;6.70;;;3.83;;
45232;SDS011;30969;51.052;17.056;2023-05-10T18:24:07;7.50;;;3.78;;
45232;SDS011;30969;51.052;17.056;2023-05-10T18:29:11;10.48;;;4.50;;
45232;SDS011;30969;51.052;17.056;2023-05-10T18:34:14;5.88;;;4.28;;
45232;SDS011;30969;51.052;17.056;2023-05-10T18:39:19;8.18;;;4.43;;
45232;SDS011;30969;51.052;17.056;2023-05-10T18:44:23;7.68;;;4.20;;
45232;SDS011;30969;51.052;17.056;2023-05-10T18:49:27;7.57;;;3.65;;
45232;SDS011;30969;51.052;17.056;2023-05-10T18:54:32;12.07;;;4.18;;
45232;SDS011;30969;51.052;17.056;2023-05-10T18:59:36;6.03;;;3.65;;
45232;SDS011;30969;51.052;17.056;2023-05-10T19:04:39;5.22;;;4.07;;
45232;SDS011;30969;51.052;17.056;2023-05-10T19:09:44;9.45;;;4.03;;
45232;SDS011;30969;51.052;17.056;2023-05-10T19:14:48;9.82;;;5.25;;
45232;SDS011;30969;51.052;17.056;2023-05-10T19:19:51;8.93;;;5.20;;
45232;SDS011;30969;51.052;17.056;2023-05-10T19:24:58;7.32;;;4.70;;
45232;SDS011;30969;51.052;17.056;2023-05-10T19:30:02;8.80;;;4.50;;
45232;SDS011;30969;51.052;17.056;2023-05-10T19:35:07;9.48;;;4.72;;
45232;SDS011;30969;51.052;17.056;2023-05-10T19:40:13;12.75;;;5.97;;
45232;SDS011;30969;51.052;17.056;2023-05-10T19:45:18;7.88;;;4.68;;
45232;SDS011;30969;51.052;17.056;2023-05-10T19:50:21;8.23;;;5.10;;
45232;SDS011;30969;51.052;17.056;2023-05-10T19:55:27;10.10;;;6.00;;
45232;SDS011;30969;51.052;17.056;2023-05-10T20:00:32;10.15;;;4.93;;
45232;SDS011;30969;51.052;17.056;2023-05-10T20:05:37;8.05;;;5.65;;
45232;SDS011;30969;51.052;17.056;2023-05-10T20:10:42;7.53;;;4.60;;
45232;SDS011;30969;51.052;17.056;2023-05-10T20:15:45;9.02;;;5.97;;
45232;SDS011;30969;51.052;17.056;2023-05-10T20:20:51;8.43;;;5.95;;
45232;SDS011;30969;51.052;17.056;2023-05-10T20:25:57;8.30;;;5.90;;
45232;SDS011;30969;51.052;17.056;2023-05-10T20:31:01;8.73;;;5.68;;
45232;SDS011;30969;51.052;17.056;2023-05-10T20:36:05;10.40;;;5.55;;
45232;SDS011;30969;51.052;17.056;2023-05-10T20:41:11;10.02;;;5.43;;
45232;SDS011;30969;51.052;17.056;2023-05-10T20:46:15;7.90;;;5.22;;
45232;SDS011;30969;51.052;17.056;2023-05-10T20:51:18;11.00;;;5.72;;
45232;SDS011;30969;51.052;17.056;2023-05-10T20:56:23;14.68;;;6.07;;
45232;SDS011;30969;51.052;17.056;2023-05-10T21:01:27;11.73;;;6.63;;
45232;SDS011;30969;51.052;17.056;2023-05-10T21:06:32;17.38;;;7.13;;
45232;SDS011;30969;51.052;17.056;2023-05-10T21:11:37;8.38;;;6.18;;
45232;SDS011;30969;51.052;17.056;2023-05-10T21:16:40;10.32;;;5.78;;
45232;SDS011;30969;51.052;17.056;2023-05-10T21:21:44;8.63;;;6.25;;
45232;SDS011;30969;51.052;17.056;2023-05-10T21:26:49;7.22;;;4.75;;
45232;SDS011;30969;51.052;17.056;2023-05-10T21:31:53;6.32;;;4.57;;
45232;SDS011;30969;51.052;17.056;2023-05-10T21:36:56;7.93;;;4.80;;
45232;SDS011;30969;51.052;17.056;2023-05-10T21:42:01;7.40;;;4.93;;
45232;SDS011;30969;51.052;17.056;2023-05-10T21:47:05;8.82;;;5.13;;
45232;SDS011;30969;51.052;17.056;2023-05-10T21:52:08;6.63;;;4.85;;
45232;SDS011;30969;51.052;17.056;2023-05-10T21:57:13;11.50;;;5.05;;
45232;SDS011;30969;51.052;17.056;2023-05-10T22:02:17;7.80;;;4.25;;
45232;SDS011;30969;51.052;17.056;2023-05-10T22:07:21;8.82;;;4.50;;
45232;SDS011;30969;51.052;17.056;2023-05-10T22:12:26;6.68;;;4.47;;
45232;SDS011;30969;51.052;17.056;2023-05-10T22:17:29;7.25;;;4.32;;
45232;SDS011;30969;51.052;17.056;2023-05-10T22:22:33;13.85;;;4.18;;
45232;SDS011;30969;51.052;17.056;2023-05-10T22:27:38;7.90;;;4.05;;
